Time;durP1;ratioP1;P1;durP2;ratioP2;P2;SDS_P1;SDS_P2;PMS_P1;PMS_P2;Temp;Humidity;BMP_temperature;BMP_pressure;BME280_temperature;BME280_humidity;BME280_pressure;Samples;Min_cycle;Max_cycle;Signal;HPM_P1;HPM_P2
2022/05/11 00:00:00;;;;;;;0.00;0.00;;;14.10;99.90;;;;;;5033606;28;20547;-68
2022/05/11 00:02:26;;;;;;;0.00;0.00;;;14.10;99.90;;;;;;5034974;28;20462;-68
2022/05/11 00:04:52;;;;;;;46.47;44.20;;;14.20;99.90;;;;;;5034816;28;20037;-68
2022/05/11 00:07:18;;;;;;;0.00;0.00;;;14.30;99.90;;;;;;5033499;28;20032;-68
2022/05/11 00:09:45;;;;;;;0.00;0.00;;;14.60;99.90;;;;;;5033611;28;20424;-67
2022/05/11 00:12:11;;;;;;;0.00;0.00;;;14.70;99.90;;;;;;5034791;28;20032;-68
2022/05/11 00:14:37;;;;;;;0.00;0.00;;;14.80;99.90;;;;;;5033382;28;20095;-67
2022/05/11 00:17:03;;;;;;;0.00;0.00;;;15.00;99.90;;;;;;5034610;28;20482;-68
2022/05/11 00:19:29;;;;;;;0.00;0.00;;;15.00;99.90;;;;;;5033450;28;20116;-68
2022/05/11 00:21:55;;;;;;;0.00;0.00;;;15.10;99.90;;;;;;5034527;28;20052;-68
2022/05/11 00:24:21;;;;;;;0.00;0.00;;;15.30;99.90;;;;;;5034590;28;20053;-68
2022/05/11 00:26:47;;;;;;;0.43;0.43;;;15.00;99.90;;;;;;5034710;28;20049;-68
2022/05/11 00:29:13;;;;;;;0.00;0.00;;;14.70;99.90;;;;;;5033188;28;20116;-67
2022/05/11 00:31:39;;;;;;;0.00;0.00;;;14.80;99.90;;;;;;5034418;28;20112;-67
2022/05/11 00:34:05;;;;;;;0.00;0.00;;;15.00;99.90;;;;;;5034393;28;20029;-68
2022/05/11 00:36:31;;;;;;;0.00;0.00;;;15.10;99.90;;;;;;5033013;28;20022;-68
2022/05/11 00:38:57;;;;;;;0.00;0.00;;;15.20;99.90;;;;;;5034280;28;20018;-68
2022/05/11 00:41:23;;;;;;;0.00;0.00;;;15.50;99.90;;;;;;5032923;28;20025;-67
2022/05/11 00:43:58;;;;;;;0.17;0.17;;;15.60;99.90;;;;;;5034193;28;20389;-67
2022/05/11 00:46:43;;;;;;;0.00;0.00;;;15.60;99.90;;;;;;5034016;28;20026;-68
2022/05/11 00:49:35;;;;;;;0.00;0.00;;;15.70;99.90;;;;;;5032746;28;20500;-68
2022/05/11 00:52:34;;;;;;;0.00;0.00;;;15.90;99.90;;;;;;5032674;28;20522;-67
2022/05/11 00:55:04;;;;;;;0.00;0.00;;;16.00;99.90;;;;;;5025359;28;20053;-68
2022/05/11 00:57:36;;;;;;;0.00;0.00;;;16.10;99.90;;;;;;5034252;28;20033;-67
2022/05/11 01:00:08;;;;;;;0.00;0.00;;;16.10;99.90;;;;;;5032552;28;20029;-68
2022/05/11 01:02:35;;;;;;;0.00;0.00;;;15.90;99.90;;;;;;5032613;28;20094;-67
2022/05/11 01:05:05;;;;;;;0.00;0.00;;;15.90;99.90;;;;;;5033626;28;20036;-67
2022/05/11 01:07:31;;;;;;;0.00;0.00;;;16.10;99.90;;;;;;5032222;28;20026;-67
2022/05/11 01:09:57;;;;;;;0.00;0.00;;;16.20;99.90;;;;;;5033692;28;20032;-67
2022/05/11 01:12:29;;;;;;;0.00;0.00;;;16.20;99.90;;;;;;5036054;28;20021;-67
2022/05/11 01:15:00;;;;;;;0.00;0.00;;;16.30;99.90;;;;;;5042172;28;20070;-68
2022/05/11 01:17:28;;;;;;;0.00;0.00;;;16.40;99.90;;;;;;5036401;28;20025;-68
2022/05/11 01:19:55;;;;;;;0.00;0.00;;;16.40;99.90;;;;;;5032213;28;20108;-67
2022/05/11 01:22:33;;;;;;;0.00;0.00;;;16.40;99.90;;;;;;5033484;28;20020;-67
2022/05/11 01:24:59;;;;;;;0.00;0.00;;;16.40;99.90;;;;;;5033373;28;20132;-67
2022/05/11 01:27:30;;;;;;;0.00;0.00;;;16.40;99.90;;;;;;5033307;28;20025;-67
2022/05/11 01:30:03;;;;;;;0.05;0.05;;;16.40;99.90;;;;;;5041920;28;20021;-68
2022/05/11 01:32:30;;;;;;;21.42;4.45;;;16.50;99.90;;;;;;5038672;28;20041;-67
2022/05/11 01:35:18;;;;;;;0.00;0.00;;;16.60;99.90;;;;;;5033132;28;20052;-67
2022/05/11 01:38:14;;;;;;;0.00;0.00;;;16.60;99.90;;;;;;5031534;28;20127;-67
2022/05/11 01:40:40;;;;;;;0.00;0.00;;;16.70;99.90;;;;;;5049456;28;20065;-67
2022/05/11 01:43:07;;;;;;;0.00;0.00;;;16.70;99.90;;;;;;5051452;28;20059;-67
2022/05/11 01:45:33;;;;;;;0.00;0.00;;;16.60;99.90;;;;;;5046096;28;20025;-67
2022/05/11 01:47:59;;;;;;;0.00;0.00;;;16.60;99.90;;;;;;5044865;28;20041;-67
2022/05/11 01:50:26;;;;;;;0.00;0.00;;;16.60;99.90;;;;;;5071897;28;20022;-67
2022/05/11 01:52:52;;;;;;;0.00;0.00;;;16.70;99.90;;;;;;5050549;28;20048;-68
2022/05/11 01:55:18;;;;;;;0.00;0.00;;;16.70;99.90;;;;;;5048513;28;20056;-68
2022/05/11 01:57:44;;;;;;;0.00;0.00;;;16.60;99.90;;;;;;5046817;28;20123;-68
2022/05/11 02:00:11;;;;;;;0.00;0.00;;;16.70;99.90;;;;;;5042983;28;20600;-67
2022/05/11 02:02:37;;;;;;;0.00;0.00;;;16.70;99.90;;;;;;5043041;28;20139;-68
2022/05/11 02:07:54;;;;;;;0.00;0.00;;;17.00;99.90;;;;;;5040526;28;20037;-68
2022/05/11 02:10:25;;;;;;;0.52;0.52;;;17.00;99.90;;;;;;5041310;28;20079;-69
2022/05/11 02:12:51;;;;;;;1.95;0.80;;;17.10;99.90;;;;;;5050290;28;20047;-68
2022/05/11 02:15:19;;;;;;;2.88;2.67;;;17.00;99.90;;;;;;5048571;28;20055;-66
2022/05/11 02:17:46;;;;;;;0.00;0.00;;;16.70;99.90;;;;;;5049350;28;20021;-67
2022/05/11 02:20:14;;;;;;;0.00;0.00;;;16.60;99.90;;;;;;5048958;28;20064;-68
2022/05/11 02:22:41;;;;;;;0.00;0.00;;;16.90;99.90;;;;;;5050368;28;20032;-68
2022/05/11 02:25:09;;;;;;;0.00;0.00;;;17.20;99.90;;;;;;5048365;28;20020;-67
2022/05/11 02:27:35;;;;;;;0.00;0.00;;;17.40;99.90;;;;;;5051344;28;20013;-67
2022/05/11 02:30:02;;;;;;;0.00;0.00;;;17.60;99.90;;;;;;5050361;28;20485;-67
2022/05/11 02:32:28;;;;;;;0.00;0.00;;;17.70;99.90;;;;;;5051928;28;20025;-67
2022/05/11 02:35:12;;;;;;;0.00;0.00;;;17.80;99.90;;;;;;5051582;28;20025;-70
2022/05/11 02:37:43;;;;;;;0.00;0.00;;;17.90;99.90;;;;;;5052871;28;20087;-68
2022/05/11 02:40:12;;;;;;;0.73;0.57;;;18.00;99.90;;;;;;5051350;28;20025;-68
2022/05/11 02:42:38;;;;;;;2.25;1.42;;;18.10;99.90;;;;;;5049107;28;20017;-69
2022/05/11 02:45:05;;;;;;;3.53;3.33;;;18.20;99.90;;;;;;5045456;28;20071;-67
2022/05/11 02:47:31;;;;;;;0.20;0.20;;;18.20;99.90;;;;;;5042433;28;20117;-69
2022/05/11 02:50:26;;;;;;;0.32;0.32;;;18.30;99.90;;;;;;5045355;28;20032;-68
2022/05/11 02:52:53;;;;;;;0.55;0.50;;;18.30;99.90;;;;;;5038194;28;20052;-68
2022/05/11 02:55:19;;;;;;;0.05;0.05;;;18.30;99.90;;;;;;5040393;28;20512;-68
2022/05/11 02:57:57;;;;;;;0.00;0.00;;;18.30;99.90;;;;;;5045044;28;20029;-71
2022/05/11 03:00:24;;;;;;;0.75;0.15;;;18.20;99.90;;;;;;5043910;28;20396;-68
2022/05/11 03:02:50;;;;;;;0.00;0.00;;;18.20;99.90;;;;;;5037245;28;20026;-68
2022/05/11 03:05:16;;;;;;;0.75;0.75;;;18.00;99.90;;;;;;5041929;28;20013;-69
2022/05/11 03:07:45;;;;;;;0.28;0.20;;;18.10;99.90;;;;;;5041240;28;20402;-71
2022/05/11 03:10:17;;;;;;;0.32;0.32;;;18.00;99.90;;;;;;5039149;28;20034;-70
2022/05/11 03:12:43;;;;;;;9.40;2.35;;;18.20;99.90;;;;;;5047522;28;20017;-69
2022/05/11 03:15:10;;;;;;;0.00;0.00;;;18.40;99.90;;;;;;5041276;28;20563;-70
2022/05/11 03:17:42;;;;;;;0.98;0.15;;;18.50;99.90;;;;;;5044789;28;20111;-71
2022/05/11 03:20:10;;;;;;;0.00;0.00;;;18.40;99.90;;;;;;5038519;28;20032;-70
2022/05/11 03:22:37;;;;;;;0.08;0.08;;;18.40;99.90;;;;;;5040089;28;20052;-71
2022/05/11 03:25:04;;;;;;;0.00;0.00;;;18.40;99.90;;;;;;5039628;28;20082;-69
2022/05/11 03:27:31;;;;;;;0.00;0.00;;;18.30;99.90;;;;;;5048120;28;20016;-70
2022/05/11 03:29:57;;;;;;;0.00;0.00;;;18.20;99.90;;;;;;5043013;28;20029;-71
2022/05/11 03:35:11;;;;;;;5.43;1.60;;;18.00;99.90;;;;;;5049970;28;20396;-70
2022/05/11 03:37:38;;;;;;;0.28;0.28;;;18.30;99.90;;;;;;5045250;28;20037;-70
2022/05/11 03:40:09;;;;;;;0.10;0.10;;;18.40;99.90;;;;;;5076582;28;20051;-69
2022/05/11 03:42:37;;;;;;;0.00;0.00;;;18.40;99.90;;;;;;5041940;28;20532;-68
2022/05/11 03:45:13;;;;;;;0.00;0.00;;;18.60;99.90;;;;;;5039588;28;20033;-69
2022/05/11 03:47:39;;;;;;;0.63;0.63;;;18.50;99.90;;;;;;5040670;28;20104;-70
2022/05/11 03:50:07;;;;;;;0.00;0.00;;;18.80;99.90;;;;;;5047284;28;20083;-69
2022/05/11 03:52:34;;;;;;;0.00;0.00;;;18.80;99.90;;;;;;5047271;28;20048;-68
2022/05/11 03:55:00;;;;;;;0.03;0.03;;;18.90;99.90;;;;;;5046168;28;20048;-68
2022/05/11 03:57:29;;;;;;;0.10;0.10;;;19.00;99.90;;;;;;5046577;28;20036;-68
2022/05/11 03:59:55;;;;;;;0.00;0.00;;;18.80;99.90;;;;;;5041830;28;20045;-68
2022/05/11 04:02:21;;;;;;;0.00;0.00;;;18.90;99.90;;;;;;5043228;28;20055;-70
2022/05/11 04:04:47;;;;;;;0.70;0.70;;;19.00;99.90;;;;;;5041190;28;20071;-69
2022/05/11 04:07:14;;;;;;;1.77;1.35;;;19.20;99.90;;;;;;5037861;28;20091;-68
2022/05/11 04:09:40;;;;;;;0.60;0.60;;;19.40;99.90;;;;;;5039555;28;20040;-68
2022/05/11 04:12:08;;;;;;;0.00;0.00;;;19.50;99.90;;;;;;5057979;28;20575;-69
2022/05/11 04:14:34;;;;;;;0.10;0.10;;;19.60;99.90;;;;;;5048245;28;20074;-69
2022/05/11 04:17:00;;;;;;;0.45;0.45;;;19.80;99.90;;;;;;5058455;28;20035;-68
2022/05/11 04:19:29;;;;;;;0.00;0.00;;;19.50;99.90;;;;;;5044886;28;20026;-68
2022/05/11 04:21:56;;;;;;;1.08;0.50;;;19.60;99.90;;;;;;5046031;28;20025;-68
2022/05/11 04:24:22;;;;;;;0.38;0.30;;;19.50;99.90;;;;;;5047877;28;20028;-68
2022/05/11 04:26:51;;;;;;;0.00;0.00;;;19.60;99.90;;;;;;5052022;28;20021;-69
2022/05/11 04:29:17;;;;;;;1.33;1.23;;;18.90;99.90;;;;;;5049785;28;20025;-69
2022/05/11 04:31:43;;;;;;;3.42;2.75;;;19.00;99.90;;;;;;5050690;28;20029;-69
2022/05/11 04:34:12;;;;;;;0.00;0.00;;;17.90;99.90;;;;;;5050310;28;20033;-69
2022/05/11 04:36:39;;;;;;;0.25;0.25;;;17.50;99.90;;;;;;5040384;28;20033;-69
2022/05/11 04:39:06;;;;;;;0.20;0.20;;;17.80;99.90;;;;;;5048540;28;20086;-70
2022/05/11 04:41:33;;;;;;;2.35;2.15;;;17.90;99.90;;;;;;5041028;28;20036;-70
2022/05/11 04:43:59;;;;;;;0.10;0.10;;;17.50;99.90;;;;;;5042942;28;20025;-69
2022/05/11 04:46:25;;;;;;;0.40;0.40;;;17.70;99.90;;;;;;5040835;28;20508;-70
2022/05/11 04:49:16;;;;;;;0.00;0.00;;;18.20;99.90;;;;;;5048845;28;20029;-69
2022/05/11 04:51:37;;;;;;;0.00;0.00;;;18.40;99.90;;;;;;5045021;28;20033;-70
2022/05/11 04:54:04;;;;;;;0.30;0.30;;;18.60;99.90;;;;;;5042003;28;20094;-70
2022/05/11 04:56:33;;;;;;;2.08;1.95;;;18.90;99.90;;;;;;5048985;28;20048;-69
2022/05/11 04:59:02;;;;;;;0.80;0.80;;;18.60;99.90;;;;;;5041380;28;20036;-70
2022/05/11 05:01:28;;;;;;;0.77;0.77;;;17.90;99.90;;;;;;5046807;28;20080;-70
2022/05/11 05:03:54;;;;;;;1.05;0.65;;;18.10;99.90;;;;;;5049376;28;20475;-70
2022/05/11 05:06:21;;;;;;;1.10;1.00;;;18.10;99.90;;;;;;5050235;28;20164;-70
2022/05/11 05:08:47;;;;;;;2.70;2.60;;;18.00;99.90;;;;;;5044213;28;20036;-70
2022/05/11 05:11:13;;;;;;;0.55;0.55;;;18.20;99.90;;;;;;5046283;28;20021;-70
2022/05/11 05:13:39;;;;;;;0.00;0.00;;;18.60;99.90;;;;;;5048794;28;20540;-70
2022/05/11 05:16:05;;;;;;;0.88;0.88;;;19.00;99.90;;;;;;5050021;28;20432;-70
2022/05/11 05:18:33;;;;;;;5.25;2.63;;;18.70;99.90;;;;;;5037275;28;20400;-70
2022/05/11 05:20:59;;;;;;;0.00;0.00;;;18.50;99.90;;;;;;5036438;28;20029;-69
2022/05/11 05:33:03;;;;;;;0.10;0.10;;;18.60;99.90;;;;;;5081044;28;20046;-68
2022/05/11 05:35:30;;;;;;;0.00;0.00;;;18.70;99.90;;;;;;5080489;28;20016;-68
2022/05/11 05:37:59;;;;;;;0.00;0.00;;;18.60;99.90;;;;;;5085304;28;20044;-68
2022/05/11 05:40:25;;;;;;;0.00;0.00;;;19.00;99.90;;;;;;5084194;28;20024;-69
2022/05/11 05:42:52;;;;;;;0.00;0.00;;;19.00;99.90;;;;;;5084866;28;20047;-69
2022/05/11 05:45:21;;;;;;;0.00;0.00;;;19.00;99.90;;;;;;5063555;28;20024;-68
2022/05/11 05:47:47;;;;;;;0.65;0.65;;;19.30;99.90;;;;;;5062006;28;20040;-69
2022/05/11 05:50:13;;;;;;;0.82;0.40;;;18.90;99.90;;;;;;5050410;28;20392;-69
2022/05/11 05:52:39;;;;;;;0.17;0.17;;;18.40;99.90;;;;;;5067006;28;20028;-70
2022/05/11 05:55:05;;;;;;;0.20;0.20;;;18.20;99.90;;;;;;5077470;28;20028;-70
2022/05/11 05:57:32;;;;;;;0.80;0.65;;;18.10;99.90;;;;;;5071510;28;20032;-71
2022/05/11 06:00:00;;;;;;;1.55;0.63;;;18.10;99.90;;;;;;5075713;28;20063;-70
2022/05/11 06:02:26;;;;;;;0.73;0.73;;;18.10;99.90;;;;;;5062974;28;20025;-71
2022/05/11 06:04:52;;;;;;;0.00;0.00;;;17.90;99.90;;;;;;5077968;28;20368;-70
2022/05/11 06:07:19;;;;;;;0.22;0.22;;;17.80;99.90;;;;;;5054235;28;20028;-69
2022/05/11 06:09:45;;;;;;;0.00;0.00;;;17.80;99.90;;;;;;5049818;28;20024;-69
2022/05/11 06:12:13;;;;;;;1.23;0.70;;;17.90;99.90;;;;;;5073598;28;20392;-69
2022/05/11 06:14:40;;;;;;;1.10;1.10;;;18.00;99.90;;;;;;5077470;28;20053;-69
2022/05/11 06:17:15;;;;;;;3.85;2.63;;;17.80;99.90;;;;;;5059487;28;20073;-69
2022/05/11 06:19:41;;;;;;;0.35;0.35;;;17.50;99.90;;;;;;5078041;28;20059;-69
2022/05/11 06:22:08;;;;;;;0.98;0.60;;;17.60;99.90;;;;;;5063921;28;20044;-69
2022/05/11 06:24:34;;;;;;;2.08;1.48;;;17.70;99.90;;;;;;5059108;28;20123;-70
2022/05/11 06:27:00;;;;;;;2.45;1.00;;;17.80;99.90;;;;;;5073532;28;20071;-69
2022/05/11 06:29:26;;;;;;;0.00;0.00;;;17.70;99.90;;;;;;5064687;28;20056;-69
2022/05/11 06:31:52;;;;;;;1.13;0.45;;;17.90;99.90;;;;;;5073579;28;20054;-70
2022/05/11 06:34:18;;;;;;;0.00;0.00;;;18.00;99.90;;;;;;5062373;28;20065;-69
2022/05/11 06:36:44;;;;;;;0.10;0.10;;;17.90;99.90;;;;;;5078571;28;20109;-71
2022/05/11 06:39:11;;;;;;;0.00;0.00;;;17.40;99.90;;;;;;5077347;28;20021;-70
2022/05/11 06:41:38;;;;;;;0.00;0.00;;;17.40;99.90;;;;;;5066255;28;20054;-70
2022/05/11 06:44:04;;;;;;;0.00;0.00;;;17.60;99.90;;;;;;5058611;28;20453;-71
2022/05/11 06:46:32;;;;;;;0.52;0.52;;;17.10;99.90;;;;;;5075884;28;20170;-70
2022/05/11 06:48:58;;;;;;;0.00;0.00;;;17.10;99.90;;;;;;5085114;28;20471;-69
2022/05/11 06:51:24;;;;;;;0.00;0.00;;;17.30;99.90;;;;;;5082182;28;20028;-70
2022/05/11 06:59:26;;;;;;;29.23;18.23;;;17.40;99.90;;;;;;5078110;28;20030;-70
2022/05/11 07:01:54;;;;;;;0.10;0.10;;;17.00;99.90;;;;;;5081378;28;20107;-71
2022/05/11 07:04:22;;;;;;;0.88;0.57;;;16.80;99.90;;;;;;5067597;28;20032;-70
2022/05/11 07:06:59;;;;;;;2.20;2.10;;;16.60;99.90;;;;;;5084676;28;20111;-70
2022/05/11 07:09:27;;;;;;;3.47;1.17;;;16.40;99.90;;;;;;5080897;28;20078;-68
2022/05/11 07:14:39;;;;;;;2.28;2.20;;;16.10;99.90;;;;;;5078225;28;20107;-68
2022/05/11 07:17:06;;;;;;;2.85;1.42;;;16.00;99.90;;;;;;5082384;28;20032;-69
2022/05/11 07:19:33;;;;;;;0.00;0.00;;;16.00;99.90;;;;;;5075943;28;20020;-69
2022/05/11 07:21:59;;;;;;;4.63;3.13;;;16.00;99.90;;;;;;5061030;28;20031;-70
2022/05/11 07:24:25;;;;;;;3.95;1.90;;;16.10;99.90;;;;;;5081079;28;20028;-68
2022/05/11 07:26:51;;;;;;;6.55;3.45;;;16.00;99.90;;;;;;5080519;28;20053;-68
2022/05/11 07:29:17;;;;;;;3.65;2.95;;;15.90;99.90;;;;;;5081074;28;20021;-68
2022/05/11 07:31:46;;;;;;;0.22;0.22;;;15.90;99.90;;;;;;5077480;28;20383;-69
2022/05/11 07:34:13;;;;;;;0.15;0.15;;;15.80;99.90;;;;;;5076406;28;20126;-69
2022/05/11 07:36:39;;;;;;;0.43;0.28;;;15.80;99.90;;;;;;5082969;28;20142;-68
2022/05/11 07:39:05;;;;;;;5.90;2.15;;;15.90;99.90;;;;;;5076783;28;20028;-69
2022/05/11 07:41:31;;;;;;;0.20;0.15;;;15.80;99.90;;;;;;5082049;28;20031;-69
2022/05/11 07:43:57;;;;;;;0.13;0.10;;;15.80;99.90;;;;;;5068783;28;20024;-68
2022/05/11 07:46:26;;;;;;;2.65;1.85;;;15.60;99.90;;;;;;5077145;28;20395;-70
2022/05/11 07:48:52;;;;;;;0.10;0.10;;;15.60;99.90;;;;;;5082630;28;20024;-69
2022/05/11 07:51:18;;;;;;;0.60;0.60;;;15.60;99.90;;;;;;5076104;28;20089;-67
2022/05/11 07:53:46;;;;;;;1.10;1.00;;;15.60;99.90;;;;;;5077411;28;20464;-68
2022/05/11 08:00:00;;;;;;;4.45;3.13;;;15.60;99.90;;;;;;5077031;28;20059;-68
2022/05/11 08:01:55;;;;;;;11.65;3.58;;;15.50;99.90;;;;;;5043018;28;20035;-68
2022/05/11 08:04:21;;;;;;;1.25;0.82;;;15.70;99.90;;;;;;5068640;28;20028;-68
2022/05/11 08:06:47;;;;;;;0.28;0.28;;;15.90;99.90;;;;;;5076104;28;20131;-68
2022/05/11 08:09:16;;;;;;;14.60;6.03;;;16.00;99.90;;;;;;5070689;28;20042;-69
2022/05/11 08:11:42;;;;;;;8.27;5.07;;;16.10;99.90;;;;;;5078141;28;20051;-67
2022/05/11 08:14:08;;;;;;;9.57;6.68;;;16.10;99.90;;;;;;5083015;28;20464;-67
2022/05/11 08:16:35;;;;;;;1.55;1.45;;;15.90;99.90;;;;;;5081776;28;20029;-66
2022/05/11 08:19:01;;;;;;;76.30;10.43;;;15.90;99.90;;;;;;5061627;28;20020;-66
2022/05/11 08:21:27;;;;;;;1.13;0.98;;;16.00;99.90;;;;;;5082297;28;20074;-67
2022/05/11 08:23:53;;;;;;;1.52;1.42;;;16.20;99.90;;;;;;5069182;28;20024;-68
2022/05/11 08:26:19;;;;;;;0.20;0.20;;;16.10;99.90;;;;;;5069592;28;20027;-67
2022/05/11 08:34:41;;;;;;;5.50;1.75;;;16.40;99.90;;;;;;5082831;28;20078;-66
2022/05/11 08:37:07;;;;;;;0.00;0.00;;;16.60;99.90;;;;;;5081261;28;20028;-67
2022/05/11 08:39:33;;;;;;;4.45;3.05;;;16.90;99.90;;;;;;5077499;28;20046;-67
2022/05/11 08:42:00;;;;;;;1.77;1.15;;;16.80;99.90;;;;;;5077976;28;20103;-69
2022/05/11 08:44:33;;;;;;;2.42;1.23;;;16.70;99.90;;;;;;5062710;28;20444;-68
2022/05/11 08:47:43;;;;;;;6.03;4.38;;;16.90;99.90;;;;;;5083345;28;20052;-68
2022/05/11 08:50:19;;;;;;;8.48;6.28;;;16.90;99.90;;;;;;5058061;28;20032;-67
2022/05/11 08:53:00;;;;;;;4.85;2.70;;;17.00;99.90;;;;;;5056493;28;20537;-69
2022/05/11 08:55:37;;;;;;;0.93;0.93;;;17.00;99.90;;;;;;5080277;28;20044;-67
2022/05/11 08:58:12;;;;;;;3.95;2.35;;;17.10;99.90;;;;;;5064297;28;20128;-67
2022/05/11 09:00:44;;;;;;;6.35;1.58;;;17.20;99.90;;;;;;5062947;28;20028;-70
2022/05/11 09:03:39;;;;;;;10.80;4.75;;;17.20;99.90;;;;;;5059516;28;20081;-69
2022/05/11 09:06:26;;;;;;;3.25;2.17;;;17.30;99.90;;;;;;5077700;28;20036;-68
2022/05/11 09:08:54;;;;;;;2.67;1.52;;;17.30;99.90;;;;;;5076981;28;20025;-70
2022/05/11 09:11:40;;;;;;;1.48;0.90;;;17.50;99.90;;;;;;5055463;28;20077;-69
2022/05/11 09:14:06;;;;;;;4.22;3.08;;;17.60;99.90;;;;;;5076217;28;20028;-71
2022/05/11 09:16:42;;;;;;;2.47;1.58;;;17.60;99.90;;;;;;5046023;28;20447;-68
2022/05/11 09:19:24;;;;;;;3.33;3.03;;;17.80;99.90;;;;;;5076636;28;20024;-69
2022/05/11 09:21:52;;;;;;;0.95;0.85;;;18.10;99.90;;;;;;5075896;28;20426;-68
2022/05/11 09:24:18;;;;;;;19.55;4.40;;;18.00;99.90;;;;;;5079002;28;20020;-70
2022/05/11 09:26:59;;;;;;;0.88;0.73;;;17.90;99.90;;;;;;5081857;28;20506;-70
2022/05/11 09:29:43;;;;;;;0.95;0.60;;;18.10;99.90;;;;;;5079142;28;20032;-70
2022/05/11 09:32:31;;;;;;;5.15;1.98;;;18.50;99.90;;;;;;5078082;28;20050;-70
2022/05/11 09:35:18;;;;;;;8.93;2.63;;;18.10;99.90;;;;;;5064140;28;20036;-69
2022/05/11 09:37:54;;;;;;;2.78;1.20;;;18.00;99.90;;;;;;5079143;28;20498;-69
2022/05/11 09:40:21;;;;;;;8.98;5.00;;;18.00;99.90;;;;;;5081718;28;20107;-70
2022/05/11 09:43:25;;;;;;;0.98;0.98;;;18.00;99.90;;;;;;5070272;28;20028;-68
2022/05/11 09:45:51;;;;;;;11.27;1.83;;;18.20;99.90;;;;;;5062972;28;20031;-69
2022/05/11 09:48:20;;;;;;;0.17;0.10;;;18.30;99.90;;;;;;5081051;28;20115;-69
2022/05/11 09:50:48;;;;;;;5.05;1.75;;;18.30;99.90;;;;;;5063203;28;20028;-69
2022/05/11 09:53:28;;;;;;;2.25;1.48;;;18.60;99.90;;;;;;5052600;28;20369;-69
2022/05/11 09:55:55;;;;;;;9.80;4.40;;;18.60;99.90;;;;;;5075739;28;20028;-70
2022/05/11 09:58:33;;;;;;;0.00;0.00;;;18.70;99.90;;;;;;5057382;28;20483;-67
2022/05/11 10:01:16;;;;;;;0.10;0.10;;;18.60;99.90;;;;;;5057171;28;20024;-68
2022/05/11 10:03:59;;;;;;;0.00;0.00;;;19.00;99.90;;;;;;5075291;28;20025;-71
2022/05/11 10:06:29;;;;;;;0.98;0.88;;;19.30;99.90;;;;;;5057025;28;20125;-70
2022/05/11 10:08:58;;;;;;;0.00;0.00;;;19.60;99.90;;;;;;5075191;28;20058;-68
2022/05/11 10:11:53;;;;;;;0.35;0.22;;;19.60;99.90;;;;;;5072693;28;20021;-69
2022/05/11 10:23:02;;;;;;;0.73;0.30;;;20.40;99.90;;;;;;5079848;28;20480;-72
2022/05/11 10:25:31;;;;;;;11.48;4.38;;;20.40;99.90;;;;;;5072686;28;20032;-71
2022/05/11 10:28:15;;;;;;;1.45;1.35;;;20.20;99.90;;;;;;5079214;28;20039;-70
2022/05/11 10:30:44;;;;;;;0.00;0.00;;;19.40;99.90;;;;;;5067294;28;20040;-70
2022/05/11 10:33:43;;;;;;;12.05;5.07;;;19.20;99.90;;;;;;5081183;28;20028;-70
2022/05/11 10:36:18;;;;;;;1.02;0.95;;;19.30;99.90;;;;;;5079362;28;20027;-70
2022/05/11 10:39:13;;;;;;;5.05;4.68;;;19.30;99.90;;;;;;5079925;28;20021;-71
2022/05/11 10:41:58;;;;;;;0.00;0.00;;;19.10;99.90;;;;;;5074566;28;20032;-71
2022/05/11 10:44:42;;;;;;;0.73;0.73;;;19.00;99.90;;;;;;5077311;28;20021;-72
2022/05/11 10:47:27;;;;;;;0.63;0.63;;;18.80;99.90;;;;;;5066220;28;20056;-71
2022/05/11 10:50:48;;;;;;;7.97;1.85;;;18.90;99.90;;;;;;5071668;28;20021;-70
2022/05/11 10:53:23;;;;;;;0.28;0.28;;;18.80;99.90;;;;;;4970317;28;20035;-70
2022/05/11 10:56:10;;;;;;;1.95;1.55;;;18.40;99.90;;;;;;5050161;28;20029;-70
2022/05/11 10:59:28;;;;;;;0.40;0.30;;;18.90;99.90;;;;;;5070661;28;20101;-71
2022/05/11 11:02:22;;;;;;;4.05;0.90;;;19.00;99.90;;;;;;5011307;28;20532;-69
2022/05/11 11:05:10;;;;;;;0.00;0.00;;;19.40;99.90;;;;;;5068379;28;20025;-71
2022/05/11 11:07:47;;;;;;;0.10;0.10;;;19.50;99.90;;;;;;5065163;28;20082;-71
2022/05/11 11:10:29;;;;;;;0.00;0.00;;;19.30;99.90;;;;;;5065567;28;20024;-70
2022/05/11 11:13:22;;;;;;;4.38;2.60;;;19.10;99.90;;;;;;5060920;28;20043;-69
2022/05/11 11:15:50;;;;;;;13.55;1.17;;;19.30;99.90;;;;;;5065911;28;20381;-69
2022/05/11 11:18:25;;;;;;;0.20;0.20;;;19.20;99.90;;;;;;5067418;28;20473;-70
2022/05/11 11:20:56;;;;;;;0.00;0.00;;;19.30;99.90;;;;;;5066073;28;20058;-70
2022/05/11 11:23:22;;;;;;;0.25;0.15;;;19.10;99.90;;;;;;5067743;28;20056;-72
2022/05/11 11:25:58;;;;;;;0.00;0.00;;;19.20;99.90;;;;;;5068671;28;20027;-69
2022/05/11 11:28:27;;;;;;;0.65;0.65;;;19.20;99.90;;;;;;5065048;28;20547;-71
2022/05/11 11:30:59;;;;;;;0.35;0.35;;;19.20;99.90;;;;;;5060574;28;20037;-70
2022/05/11 11:33:28;;;;;;;0.52;0.52;;;19.50;99.90;;;;;;5065582;28;20054;-70
2022/05/11 11:36:07;;;;;;;2.38;1.63;;;19.40;99.90;;;;;;5068969;28;20023;-71
2022/05/11 11:38:39;;;;;;;1.05;0.80;;;19.20;99.90;;;;;;5065468;28;20037;-71
2022/05/11 11:41:30;;;;;;;0.22;0.17;;;19.10;99.90;;;;;;5067209;28;20021;-72
2022/05/11 11:44:03;;;;;;;0.00;0.00;;;18.90;99.90;;;;;;5067322;28;20461;-70
2022/05/11 11:47:24;;;;;;;0.80;0.50;;;18.80;99.90;;;;;;5070804;28;20505;-71
2022/05/11 11:49:50;;;;;;;0.90;0.47;;;19.20;99.90;;;;;;5056220;28;20040;-71
2022/05/11 11:52:39;;;;;;;1.88;0.60;;;19.00;99.90;;;;;;5077281;28;20016;-71
2022/05/11 11:55:30;;;;;;;0.88;0.57;;;18.80;99.90;;;;;;5076892;28;20075;-70
2022/05/11 11:58:26;;;;;;;1.92;0.73;;;18.80;99.90;;;;;;5047251;28;20143;-70
2022/05/11 12:01:11;;;;;;;0.43;0.30;;;18.90;99.90;;;;;;5078536;28;20093;-70
2022/05/11 12:04:01;;;;;;;0.10;0.10;;;19.00;99.90;;;;;;5081927;28;20097;-69
2022/05/11 12:15:19;;;;;;;0.05;0.05;;;19.00;99.90;;;;;;5071674;28;20089;-70
2022/05/11 12:17:41;;;;;;;0.30;0.30;;;19.10;99.90;;;;;;5080297;28;20039;-71
2022/05/11 12:20:19;;;;;;;1.42;1.33;;;19.40;99.90;;;;;;5084772;28;20030;-70
2022/05/11 12:22:57;;;;;;;0.10;0.10;;;19.40;99.90;;;;;;5072196;28;20061;-70
2022/05/11 12:25:36;;;;;;;0.60;0.60;;;19.40;99.90;;;;;;5081202;28;20020;-69
2022/05/11 12:28:18;;;;;;;1.20;0.90;;;19.20;99.90;;;;;;5075328;28;20162;-71
2022/05/11 12:30:45;;;;;;;1.15;0.75;;;19.10;99.90;;;;;;5059095;28;20025;-69
2022/05/11 12:33:21;;;;;;;1.65;0.50;;;19.10;99.90;;;;;;5074439;28;20520;-69
2022/05/11 12:35:49;;;;;;;0.82;0.82;;;19.10;99.90;;;;;;5066809;28;20025;-69
2022/05/11 12:38:31;;;;;;;2.05;0.50;;;19.10;99.90;;;;;;5068085;28;20032;-70
2022/05/11 12:40:59;;;;;;;0.65;0.15;;;19.10;99.90;;;;;;5067796;28;20032;-68
2022/05/11 12:43:32;;;;;;;0.25;0.25;;;19.20;99.90;;;;;;5080751;28;20035;-70
2022/05/11 12:46:17;;;;;;;0.00;0.00;;;19.20;99.90;;;;;;5079155;28;20514;-70
2022/05/11 12:48:57;;;;;;;1.00;1.00;;;19.30;99.90;;;;;;5059840;28;20061;-69
2022/05/11 12:51:36;;;;;;;0.45;0.22;;;19.30;99.90;;;;;;5038035;28;20103;-70
2022/05/11 12:54:08;;;;;;;1.13;0.50;;;19.30;99.90;;;;;;5060707;28;20031;-70
2022/05/11 12:56:40;;;;;;;0.43;0.30;;;19.20;99.90;;;;;;5040524;28;20408;-71
2022/05/11 12:59:20;;;;;;;0.77;0.20;;;19.20;99.90;;;;;;5035901;28;20025;-70
2022/05/11 13:01:46;;;;;;;0.00;0.00;;;19.10;99.90;;;;;;5027470;28;20025;-70
2022/05/11 13:04:21;;;;;;;0.00;0.00;;;19.10;99.90;;;;;;5052310;28;20053;-72
2022/05/11 13:06:54;;;;;;;0.60;0.60;;;19.00;99.90;;;;;;5040716;28;20384;-69
2022/05/11 13:09:44;;;;;;;1.88;0.15;;;19.20;99.90;;;;;;5071455;28;20029;-69
2022/05/11 13:12:13;;;;;;;0.57;0.28;;;19.20;99.90;;;;;;5067091;28;20436;-69
2022/05/11 13:14:52;;;;;;;0.10;0.00;;;19.00;99.90;;;;;;5067402;28;20032;-69
2022/05/11 13:17:21;;;;;;;0.00;0.00;;;19.10;99.90;;;;;;5060926;28;20100;-70
2022/05/11 13:20:00;;;;;;;0.00;0.00;;;18.90;99.90;;;;;;5062162;28;20104;-69
2022/05/11 13:22:29;;;;;;;0.00;0.00;;;18.90;99.90;;;;;;5066265;28;20366;-70
2022/05/11 13:25:04;;;;;;;0.00;0.00;;;18.80;99.90;;;;;;5059909;28;20041;-68
2022/05/11 13:27:40;;;;;;;0.00;0.00;;;18.80;99.90;;;;;;5062777;28;20065;-68
2022/05/11 13:30:15;;;;;;;0.00;0.00;;;18.80;99.90;;;;;;5038685;28;20029;-69
2022/05/11 13:32:46;;;;;;;1.17;1.08;;;19.00;99.90;;;;;;5040155;28;20056;-71
2022/05/11 13:35:36;;;;;;;0.00;0.00;;;18.80;99.90;;;;;;5064819;28;20020;-71
2022/05/11 13:38:12;;;;;;;3.08;2.92;;;18.60;99.90;;;;;;5064615;28;20036;-69
2022/05/11 13:40:41;;;;;;;0.00;0.00;;;18.50;99.90;;;;;;5061131;28;20053;-70
2022/05/11 13:43:31;;;;;;;0.28;0.28;;;18.40;99.90;;;;;;5055713;28;20086;-70
2022/05/11 13:46:03;;;;;;;0.30;0.30;;;18.40;99.90;;;;;;5048259;28;20022;-69
2022/05/11 13:48:45;;;;;;;0.00;0.00;;;18.30;99.90;;;;;;5034191;28;20041;-70
2022/05/11 13:51:21;;;;;;;0.00;0.00;;;18.30;99.90;;;;;;5049167;28;20016;-68
2022/05/11 13:53:50;;;;;;;0.00;0.00;;;18.40;99.90;;;;;;5064769;28;20526;-68
2022/05/11 13:56:29;;;;;;;0.00;0.00;;;18.40;99.90;;;;;;5058454;28;20032;-70
2022/05/11 13:58:57;;;;;;;0.00;0.00;;;18.40;99.90;;;;;;5042903;28;20028;-71